Sebring, Pennsylvania
Current Conditions -  °F | °C
As of 8:55 AM on Thursday 30 Oct 2014 (Local Time) from KN38 Reporting Station
Broken Clouds Broken Clouds  
Wind Chill: 35°   Ceiling: 3200
Heat Index: 39°   Visibility: 10mi
Dew Point: 37°   Wind: 6mph
Humidity: 93%   Direction: 310°NW
Pressure: 30.04"   Gusts: NA
Location:  41.5669°N, 77.1227°W
Report Text: KN38 301255Z AUTO 31005KT 10SM BKN032 04/03 A3004 RMK AO2
Loading
Personal Weather Stations






























Interactive Weather Map
Tropical Storm Tracking
New forecast layout! Learn more

10-Day Weather Forecast

Advertisements
Track Severe Weather on mobile